sensor_id;sensor_type;location;lat;lon;timestamp;P1;durP1;ratioP1;P2;durP2;ratioP2
69188;SDS011;56302;52.322;5.926;2022-09-09T00:02:00;5.72;;;1.90;;
69188;SDS011;56302;52.322;5.926;2022-09-09T00:07:03;4.67;;;1.63;;
69188;SDS011;56302;52.322;5.926;2022-09-09T00:09:58;3.25;;;1.65;;
69188;SDS011;56302;52.322;5.926;2022-09-09T00:15:24;6.75;;;1.45;;
69188;SDS011;56302;52.322;5.926;2022-09-09T00:23:30;4.25;;;1.73;;
69188;SDS011;56302;52.322;5.926;2022-09-09T00:28:28;3.78;;;1.70;;
69188;SDS011;56302;52.322;5.926;2022-09-09T00:30:59;3.65;;;1.40;;
69188;SDS011;56302;52.322;5.926;2022-09-09T00:33:35;8.07;;;1.40;;
69188;SDS011;56302;52.322;5.926;2022-09-09T00:36:02;3.85;;;1.40;;
69188;SDS011;56302;52.322;5.926;2022-09-09T00:38:30;4.10;;;1.80;;
69188;SDS011;56302;52.322;5.926;2022-09-09T00:43:42;3.00;;;1.30;;
69188;SDS011;56302;52.322;5.926;2022-09-09T00:46:29;3.17;;;1.40;;
69188;SDS011;56302;52.322;5.926;2022-09-09T00:54:43;5.05;;;1.80;;
69188;SDS011;56302;52.322;5.926;2022-09-09T00:57:18;5.33;;;1.60;;
69188;SDS011;56302;52.322;5.926;2022-09-09T01:02:33;3.90;;;1.40;;
69188;SDS011;56302;52.322;5.926;2022-09-09T01:05:20;3.28;;;1.35;;
69188;SDS011;56302;52.322;5.926;2022-09-09T01:07:53;3.50;;;1.50;;
69188;SDS011;56302;52.322;5.926;2022-09-09T01:13:25;3.90;;;1.75;;
69188;SDS011;56302;52.322;5.926;2022-09-09T01:15:52;4.93;;;1.60;;
69188;SDS011;56302;52.322;5.926;2022-09-09T01:18:20;3.15;;;1.50;;
69188;SDS011;56302;52.322;5.926;2022-09-09T01:23:45;3.43;;;1.50;;
69188;SDS011;56302;52.322;5.926;2022-09-09T01:26:28;5.25;;;1.42;;
69188;SDS011;56302;52.322;5.926;2022-09-09T01:28:58;5.85;;;1.67;;
69188;SDS011;56302;52.322;5.926;2022-09-09T01:34:14;3.75;;;2.08;;
69188;SDS011;56302;52.322;5.926;2022-09-09T01:36:42;4.45;;;1.50;;
69188;SDS011;56302;52.322;5.926;2022-09-09T01:39:15;6.50;;;1.50;;
69188;SDS011;56302;52.322;5.926;2022-09-09T01:41:40;4.60;;;1.80;;
69188;SDS011;56302;52.322;5.926;2022-09-09T01:44:06;3.87;;;1.63;;
69188;SDS011;56302;52.322;5.926;2022-09-09T01:46:33;4.80;;;1.38;;
69188;SDS011;56302;52.322;5.926;2022-09-09T01:48:58;4.30;;;2.20;;
69188;SDS011;56302;52.322;5.926;2022-09-09T01:51:27;6.30;;;1.80;;
69188;SDS011;56302;52.322;5.926;2022-09-09T01:53:53;5.00;;;1.67;;
69188;SDS011;56302;52.322;5.926;2022-09-09T01:56:34;6.83;;;2.03;;
69188;SDS011;56302;52.322;5.926;2022-09-09T02:02:04;3.70;;;2.15;;
69188;SDS011;56302;52.322;5.926;2022-09-09T02:07:50;8.73;;;2.53;;
69188;SDS011;56302;52.322;5.926;2022-09-09T02:10:22;6.43;;;2.75;;
69188;SDS011;56302;52.322;5.926;2022-09-09T02:12:52;7.18;;;2.40;;
69188;SDS011;56302;52.322;5.926;2022-09-09T02:17:57;7.27;;;2.67;;
69188;SDS011;56302;52.322;5.926;2022-09-09T02:20:26;5.60;;;2.92;;
69188;SDS011;56302;52.322;5.926;2022-09-09T02:22:55;6.35;;;2.50;;
69188;SDS011;56302;52.322;5.926;2022-09-09T02:25:22;6.03;;;2.65;;
69188;SDS011;56302;52.322;5.926;2022-09-09T02:27:50;9.50;;;3.20;;
69188;SDS011;56302;52.322;5.926;2022-09-09T02:30:16;6.87;;;2.90;;
69188;SDS011;56302;52.322;5.926;2022-09-09T02:32:43;6.43;;;3.50;;
69188;SDS011;56302;52.322;5.926;2022-09-09T02:35:12;8.13;;;2.95;;
69188;SDS011;56302;52.322;5.926;2022-09-09T02:37:40;6.10;;;3.45;;
69188;SDS011;56302;52.322;5.926;2022-09-09T02:40:08;8.07;;;2.93;;
69188;SDS011;56302;52.322;5.926;2022-09-09T02:42:39;6.80;;;3.00;;
69188;SDS011;56302;52.322;5.926;2022-09-09T02:45:06;6.57;;;2.83;;
69188;SDS011;56302;52.322;5.926;2022-09-09T02:47:36;6.28;;;2.58;;
69188;SDS011;56302;52.322;5.926;2022-09-09T02:50:20;6.13;;;3.00;;
69188;SDS011;56302;52.322;5.926;2022-09-09T02:53:14;5.60;;;2.57;;
69188;SDS011;56302;52.322;5.926;2022-09-09T02:58:21;5.32;;;2.70;;
69188;SDS011;56302;52.322;5.926;2022-09-09T03:00:48;7.95;;;3.17;;
69188;SDS011;56302;52.322;5.926;2022-09-09T03:03:16;5.55;;;2.95;;
69188;SDS011;56302;52.322;5.926;2022-09-09T03:05:43;5.73;;;2.77;;
69188;SDS011;56302;52.322;5.926;2022-09-09T03:08:09;4.70;;;2.20;;
69188;SDS011;56302;52.322;5.926;2022-09-09T03:10:35;6.45;;;2.70;;
69188;SDS011;56302;52.322;5.926;2022-09-09T03:13:02;4.95;;;2.75;;
69188;SDS011;56302;52.322;5.926;2022-09-09T03:15:29;6.10;;;2.75;;
69188;SDS011;56302;52.322;5.926;2022-09-09T03:17:56;7.70;;;2.53;;
69188;SDS011;56302;52.322;5.926;2022-09-09T03:20:23;4.80;;;2.28;;
69188;SDS011;56302;52.322;5.926;2022-09-09T03:22:50;5.57;;;2.58;;
69188;SDS011;56302;52.322;5.926;2022-09-09T03:25:16;8.20;;;2.72;;
69188;SDS011;56302;52.322;5.926;2022-09-09T03:27:42;6.55;;;2.92;;
69188;SDS011;56302;52.322;5.926;2022-09-09T03:30:08;6.70;;;2.37;;
69188;SDS011;56302;52.322;5.926;2022-09-09T03:32:34;6.82;;;2.95;;
69188;SDS011;56302;52.322;5.926;2022-09-09T03:35:00;6.13;;;2.90;;
69188;SDS011;56302;52.322;5.926;2022-09-09T03:37:25;5.50;;;2.37;;
69188;SDS011;56302;52.322;5.926;2022-09-09T03:39:51;4.57;;;2.45;;
69188;SDS011;56302;52.322;5.926;2022-09-09T03:42:19;8.43;;;2.60;;
69188;SDS011;56302;52.322;5.926;2022-09-09T03:44:48;6.13;;;2.90;;
69188;SDS011;56302;52.322;5.926;2022-09-09T03:47:18;5.25;;;2.50;;
69188;SDS011;56302;52.322;5.926;2022-09-09T03:49:46;6.18;;;2.60;;
69188;SDS011;56302;52.322;5.926;2022-09-09T03:52:13;5.18;;;2.42;;
69188;SDS011;56302;52.322;5.926;2022-09-09T03:54:39;6.50;;;2.70;;
69188;SDS011;56302;52.322;5.926;2022-09-09T03:57:06;7.67;;;2.60;;
69188;SDS011;56302;52.322;5.926;2022-09-09T03:59:31;6.18;;;2.67;;
69188;SDS011;56302;52.322;5.926;2022-09-09T04:01:57;5.60;;;3.10;;
69188;SDS011;56302;52.322;5.926;2022-09-09T04:04:24;9.77;;;2.85;;
69188;SDS011;56302;52.322;5.926;2022-09-09T04:06:50;8.43;;;2.90;;
69188;SDS011;56302;52.322;5.926;2022-09-09T04:09:17;8.80;;;2.83;;
69188;SDS011;56302;52.322;5.926;2022-09-09T04:11:42;5.20;;;2.60;;
69188;SDS011;56302;52.322;5.926;2022-09-09T04:14:08;5.63;;;2.97;;
69188;SDS011;56302;52.322;5.926;2022-09-09T04:16:33;5.13;;;2.83;;
69188;SDS011;56302;52.322;5.926;2022-09-09T04:19:02;7.18;;;2.95;;
69188;SDS011;56302;52.322;5.926;2022-09-09T04:21:29;6.53;;;3.13;;
69188;SDS011;56302;52.322;5.926;2022-09-09T04:23:55;7.10;;;2.70;;
69188;SDS011;56302;52.322;5.926;2022-09-09T04:26:20;5.33;;;2.80;;
69188;SDS011;56302;52.322;5.926;2022-09-09T04:28:46;5.18;;;2.58;;
69188;SDS011;56302;52.322;5.926;2022-09-09T04:31:18;5.20;;;2.70;;
69188;SDS011;56302;52.322;5.926;2022-09-09T04:33:47;9.25;;;3.20;;
69188;SDS011;56302;52.322;5.926;2022-09-09T04:36:13;6.77;;;2.80;;
69188;SDS011;56302;52.322;5.926;2022-09-09T04:38:39;5.93;;;2.95;;
69188;SDS011;56302;52.322;5.926;2022-09-09T04:41:05;6.87;;;3.17;;
69188;SDS011;56302;52.322;5.926;2022-09-09T04:43:31;5.05;;;2.90;;
69188;SDS011;56302;52.322;5.926;2022-09-09T04:45:56;9.23;;;3.80;;
69188;SDS011;56302;52.322;5.926;2022-09-09T04:48:24;5.18;;;3.13;;
69188;SDS011;56302;52.322;5.926;2022-09-09T04:51:00;5.47;;;3.03;;
69188;SDS011;56302;52.322;5.926;2022-09-09T04:53:27;6.22;;;3.15;;
69188;SDS011;56302;52.322;5.926;2022-09-09T04:56:02;6.00;;;2.97;;
69188;SDS011;56302;52.322;5.926;2022-09-09T04:58:35;9.73;;;3.17;;
69188;SDS011;56302;52.322;5.926;2022-09-09T05:01:02;6.45;;;3.22;;
69188;SDS011;56302;52.322;5.926;2022-09-09T05:03:32;5.75;;;2.75;;
69188;SDS011;56302;52.322;5.926;2022-09-09T05:06:08;9.50;;;3.63;;
69188;SDS011;56302;52.322;5.926;2022-09-09T05:08:44;7.05;;;3.22;;
69188;SDS011;56302;52.322;5.926;2022-09-09T05:11:28;7.22;;;3.25;;
69188;SDS011;56302;52.322;5.926;2022-09-09T05:13:55;5.60;;;3.13;;
69188;SDS011;56302;52.322;5.926;2022-09-09T05:16:21;8.55;;;3.03;;
69188;SDS011;56302;52.322;5.926;2022-09-09T05:18:47;6.23;;;2.97;;
69188;SDS011;56302;52.322;5.926;2022-09-09T05:21:15;6.40;;;3.13;;
69188;SDS011;56302;52.322;5.926;2022-09-09T05:23:41;6.63;;;2.63;;
69188;SDS011;56302;52.322;5.926;2022-09-09T05:26:07;8.40;;;3.40;;
69188;SDS011;56302;52.322;5.926;2022-09-09T05:28:37;7.68;;;3.55;;
69188;SDS011;56302;52.322;5.926;2022-09-09T05:31:03;5.93;;;3.23;;
69188;SDS011;56302;52.322;5.926;2022-09-09T05:33:32;6.97;;;3.20;;
69188;SDS011;56302;52.322;5.926;2022-09-09T05:36:00;7.05;;;3.38;;
69188;SDS011;56302;52.322;5.926;2022-09-09T05:38:31;9.70;;;3.60;;
69188;SDS011;56302;52.322;5.926;2022-09-09T05:40:58;5.70;;;3.43;;
69188;SDS011;56302;52.322;5.926;2022-09-09T05:43:24;6.93;;;2.95;;
69188;SDS011;56302;52.322;5.926;2022-09-09T05:46:06;6.10;;;3.78;;
69188;SDS011;56302;52.322;5.926;2022-09-09T05:48:34;11.45;;;3.50;;
69188;SDS011;56302;52.322;5.926;2022-09-09T05:51:05;5.90;;;3.58;;
69188;SDS011;56302;52.322;5.926;2022-09-09T05:53:33;5.60;;;3.07;;
69188;SDS011;56302;52.322;5.926;2022-09-09T05:56:02;8.07;;;3.80;;
69188;SDS011;56302;52.322;5.926;2022-09-09T05:58:33;9.55;;;3.65;;
69188;SDS011;56302;52.322;5.926;2022-09-09T06:01:03;7.93;;;3.10;;
69188;SDS011;56302;52.322;5.926;2022-09-09T06:03:34;7.28;;;3.45;;
69188;SDS011;56302;52.322;5.926;2022-09-09T06:06:00;11.07;;;3.80;;
69188;SDS011;56302;52.322;5.926;2022-09-09T06:08:30;6.47;;;3.65;;
69188;SDS011;56302;52.322;5.926;2022-09-09T06:11:00;9.63;;;3.53;;
69188;SDS011;56302;52.322;5.926;2022-09-09T06:13:27;7.35;;;3.20;;
69188;SDS011;56302;52.322;5.926;2022-09-09T06:15:53;7.27;;;4.23;;
69188;SDS011;56302;52.322;5.926;2022-09-09T06:18:19;8.23;;;3.47;;
69188;SDS011;56302;52.322;5.926;2022-09-09T06:20:57;7.13;;;3.37;;
69188;SDS011;56302;52.322;5.926;2022-09-09T06:23:25;7.53;;;3.53;;
69188;SDS011;56302;52.322;5.926;2022-09-09T06:25:51;8.68;;;3.97;;
69188;SDS011;56302;52.322;5.926;2022-09-09T06:28:25;7.82;;;3.72;;
69188;SDS011;56302;52.322;5.926;2022-09-09T06:30:56;8.03;;;4.07;;
69188;SDS011;56302;52.322;5.926;2022-09-09T06:33:34;8.05;;;4.32;;
69188;SDS011;56302;52.322;5.926;2022-09-09T06:36:01;7.13;;;3.80;;
69188;SDS011;56302;52.322;5.926;2022-09-09T06:38:28;9.70;;;3.97;;
69188;SDS011;56302;52.322;5.926;2022-09-09T06:40:55;10.37;;;3.67;;
69188;SDS011;56302;52.322;5.926;2022-09-09T06:43:23;7.18;;;3.60;;
69188;SDS011;56302;52.322;5.926;2022-09-09T06:46:23;9.40;;;4.20;;
69188;SDS011;56302;52.322;5.926;2022-09-09T06:48:43;8.82;;;3.97;;
69188;SDS011;56302;52.322;5.926;2022-09-09T06:51:13;9.15;;;4.30;;
69188;SDS011;56302;52.322;5.926;2022-09-09T06:53:41;6.37;;;3.50;;
69188;SDS011;56302;52.322;5.926;2022-09-09T06:58:57;8.98;;;3.92;;
69188;SDS011;56302;52.322;5.926;2022-09-09T07:01:27;7.10;;;3.65;;
69188;SDS011;56302;52.322;5.926;2022-09-09T07:03:55;7.82;;;3.30;;
69188;SDS011;56302;52.322;5.926;2022-09-09T07:06:25;9.50;;;2.93;;
69188;SDS011;56302;52.322;5.926;2022-09-09T07:08:56;8.57;;;3.15;;
69188;SDS011;56302;52.322;5.926;2022-09-09T07:11:24;10.20;;;3.55;;
69188;SDS011;56302;52.322;5.926;2022-09-09T07:13:52;7.70;;;2.58;;
69188;SDS011;56302;52.322;5.926;2022-09-09T07:16:19;7.10;;;2.80;;
69188;SDS011;56302;52.322;5.926;2022-09-09T07:18:48;7.10;;;2.77;;
69188;SDS011;56302;52.322;5.926;2022-09-09T07:21:15;9.43;;;2.58;;
69188;SDS011;56302;52.322;5.926;2022-09-09T07:23:41;10.60;;;2.75;;
69188;SDS011;56302;52.322;5.926;2022-09-09T07:26:10;11.73;;;3.45;;
69188;SDS011;56302;52.322;5.926;2022-09-09T07:28:41;5.83;;;2.30;;
69188;SDS011;56302;52.322;5.926;2022-09-09T07:31:08;10.35;;;3.00;;
69188;SDS011;56302;52.322;5.926;2022-09-09T07:33:38;9.80;;;2.70;;
69188;SDS011;56302;52.322;5.926;2022-09-09T07:38:42;10.25;;;2.90;;
69188;SDS011;56302;52.322;5.926;2022-09-09T07:41:10;7.03;;;2.80;;
69188;SDS011;56302;52.322;5.926;2022-09-09T07:43:39;10.50;;;3.00;;
69188;SDS011;56302;52.322;5.926;2022-09-09T07:46:05;8.13;;;2.75;;
69188;SDS011;56302;52.322;5.926;2022-09-09T07:48:32;9.23;;;3.17;;
69188;SDS011;56302;52.322;5.926;2022-09-09T07:53:55;9.00;;;2.57;;
69188;SDS011;56302;52.322;5.926;2022-09-09T07:56:23;6.82;;;2.50;;
69188;SDS011;56302;52.322;5.926;2022-09-09T07:58:51;8.57;;;2.90;;
69188;SDS011;56302;52.322;5.926;2022-09-09T08:01:22;7.55;;;2.33;;
69188;SDS011;56302;52.322;5.926;2022-09-09T08:03:56;9.65;;;3.20;;
69188;SDS011;56302;52.322;5.926;2022-09-09T08:06:25;9.13;;;2.40;;
69188;SDS011;56302;52.322;5.926;2022-09-09T08:08:51;8.10;;;2.38;;
69188;SDS011;56302;52.322;5.926;2022-09-09T08:11:18;11.00;;;3.10;;
69188;SDS011;56302;52.322;5.926;2022-09-09T08:13:43;7.40;;;2.20;;
69188;SDS011;56302;52.322;5.926;2022-09-09T08:16:13;6.03;;;2.53;;
69188;SDS011;56302;52.322;5.926;2022-09-09T08:18:41;6.43;;;2.33;;
69188;SDS011;56302;52.322;5.926;2022-09-09T08:23:43;10.20;;;2.72;;
69188;SDS011;56302;52.322;5.926;2022-09-09T08:28:38;9.05;;;2.10;;
69188;SDS011;56302;52.322;5.926;2022-09-09T08:31:09;7.80;;;2.20;;
69188;SDS011;56302;52.322;5.926;2022-09-09T08:33:35;9.07;;;2.33;;
69188;SDS011;56302;52.322;5.926;2022-09-09T08:36:03;9.10;;;2.38;;
69188;SDS011;56302;52.322;5.926;2022-09-09T08:38:29;8.67;;;2.20;;
69188;SDS011;56302;52.322;5.926;2022-09-09T08:40:57;7.93;;;2.03;;
69188;SDS011;56302;52.322;5.926;2022-09-09T08:43:46;12.35;;;2.00;;
69188;SDS011;56302;52.322;5.926;2022-09-09T08:46:26;9.30;;;1.87;;
69188;SDS011;56302;52.322;5.926;2022-09-09T08:49:03;7.68;;;1.85;;
69188;SDS011;56302;52.322;5.926;2022-09-09T08:51:51;8.65;;;2.60;;
69188;SDS011;56302;52.322;5.926;2022-09-09T08:54:21;8.38;;;2.28;;
69188;SDS011;56302;52.322;5.926;2022-09-09T08:56:47;6.82;;;2.47;;
69188;SDS011;56302;52.322;5.926;2022-09-09T08:59:14;8.30;;;1.70;;
69188;SDS011;56302;52.322;5.926;2022-09-09T09:04:48;12.45;;;2.80;;
69188;SDS011;56302;52.322;5.926;2022-09-09T09:12:31;7.30;;;2.00;;
69188;SDS011;56302;52.322;5.926;2022-09-09T09:15:05;7.78;;;2.13;;
69188;SDS011;56302;52.322;5.926;2022-09-09T09:17:42;7.40;;;3.00;;
69188;SDS011;56302;52.322;5.926;2022-09-09T09:20:11;10.98;;;2.40;;
69188;SDS011;56302;52.322;5.926;2022-09-09T09:22:43;7.05;;;1.92;;
69188;SDS011;56302;52.322;5.926;2022-09-09T09:25:23;6.60;;;1.80;;
69188;SDS011;56302;52.322;5.926;2022-09-09T09:28:17;8.07;;;1.92;;
69188;SDS011;56302;52.322;5.926;2022-09-09T09:30:55;6.35;;;2.10;;
69188;SDS011;56302;52.322;5.926;2022-09-09T09:33:35;8.57;;;2.50;;
69188;SDS011;56302;52.322;5.926;2022-09-09T09:36:11;9.10;;;2.10;;
69188;SDS011;56302;52.322;5.926;2022-09-09T09:38:50;6.87;;;1.70;;
69188;SDS011;56302;52.322;5.926;2022-09-09T09:41:31;8.32;;;2.10;;
69188;SDS011;56302;52.322;5.926;2022-09-09T09:43:57;9.95;;;2.20;;
69188;SDS011;56302;52.322;5.926;2022-09-09T09:46:25;10.70;;;2.10;;
69188;SDS011;56302;52.322;5.926;2022-09-09T09:49:01;6.80;;;1.70;;
69188;SDS011;56302;52.322;5.926;2022-09-09T09:51:30;12.55;;;2.42;;
69188;SDS011;56302;52.322;5.926;2022-09-09T09:56:38;7.63;;;2.90;;
69188;SDS011;56302;52.322;5.926;2022-09-09T09:59:05;7.70;;;1.98;;
69188;SDS011;56302;52.322;5.926;2022-09-09T10:01:32;8.33;;;1.93;;
69188;SDS011;56302;52.322;5.926;2022-09-09T10:03:59;7.05;;;1.90;;
69188;SDS011;56302;52.322;5.926;2022-09-09T10:06:34;8.43;;;2.17;;
69188;SDS011;56302;52.322;5.926;2022-09-09T10:09:02;7.18;;;2.15;;
69188;SDS011;56302;52.322;5.926;2022-09-09T10:17:38;10.40;;;2.30;;
69188;SDS011;56302;52.322;5.926;2022-09-09T10:22:50;6.90;;;2.10;;
69188;SDS011;56302;52.322;5.926;2022-09-09T10:25:22;10.57;;;1.90;;
69188;SDS011;56302;52.322;5.926;2022-09-09T10:35:58;9.52;;;2.88;;
69188;SDS011;56302;52.322;5.926;2022-09-09T10:38:45;12.57;;;2.03;;
69188;SDS011;56302;52.322;5.926;2022-09-09T10:57:43;6.10;;;1.50;;
69188;SDS011;56302;52.322;5.926;2022-09-09T11:00:18;7.90;;;1.55;;
69188;SDS011;56302;52.322;5.926;2022-09-09T11:03:04;8.07;;;2.00;;
69188;SDS011;56302;52.322;5.926;2022-09-09T11:10:40;6.43;;;1.97;;
69188;SDS011;56302;52.322;5.926;2022-09-09T11:13:22;10.15;;;1.73;;
69188;SDS011;56302;52.322;5.926;2022-09-09T11:15:52;8.80;;;2.22;;
69188;SDS011;56302;52.322;5.926;2022-09-09T11:18:23;6.40;;;1.70;;
69188;SDS011;56302;52.322;5.926;2022-09-09T11:20:49;6.87;;;2.00;;
69188;SDS011;56302;52.322;5.926;2022-09-09T11:23:22;6.20;;;1.63;;
69188;SDS011;56302;52.322;5.926;2022-09-09T11:26:12;5.50;;;1.60;;
69188;SDS011;56302;52.322;5.926;2022-09-09T11:29:08;7.10;;;1.80;;
69188;SDS011;56302;52.322;5.926;2022-09-09T11:38:03;9.05;;;2.30;;
69188;SDS011;56302;52.322;5.926;2022-09-09T11:40:59;5.85;;;1.77;;
69188;SDS011;56302;52.322;5.926;2022-09-09T11:43:31;6.03;;;1.70;;
69188;SDS011;56302;52.322;5.926;2022-09-09T11:46:03;8.38;;;1.88;;
69188;SDS011;56302;52.322;5.926;2022-09-09T11:48:33;6.05;;;2.33;;
69188;SDS011;56302;52.322;5.926;2022-09-09T11:51:02;7.22;;;2.20;;
69188;SDS011;56302;52.322;5.926;2022-09-09T11:53:36;7.80;;;2.33;;
69188;SDS011;56302;52.322;5.926;2022-09-09T11:56:27;6.17;;;1.93;;
69188;SDS011;56302;52.322;5.926;2022-09-09T11:59:05;6.00;;;1.92;;
69188;SDS011;56302;52.322;5.926;2022-09-09T12:01:44;7.20;;;2.90;;
69188;SDS011;56302;52.322;5.926;2022-09-09T12:06:58;7.88;;;2.67;;
69188;SDS011;56302;52.322;5.926;2022-09-09T12:09:56;8.83;;;2.33;;
69188;SDS011;56302;52.322;5.926;2022-09-09T12:12:31;7.95;;;2.25;;
69188;SDS011;56302;52.322;5.926;2022-09-09T12:17:41;12.10;;;1.98;;
69188;SDS011;56302;52.322;5.926;2022-09-09T12:28:01;7.60;;;2.05;;
69188;SDS011;56302;52.322;5.926;2022-09-09T12:30:29;8.88;;;1.88;;
69188;SDS011;56302;52.322;5.926;2022-09-09T12:33:20;9.30;;;2.60;;
69188;SDS011;56302;52.322;5.926;2022-09-09T12:35:50;5.70;;;1.90;;
69188;SDS011;56302;52.322;5.926;2022-09-09T12:38:31;8.70;;;2.05;;
69188;SDS011;56302;52.322;5.926;2022-09-09T12:41:00;8.00;;;2.00;;
69188;SDS011;56302;52.322;5.926;2022-09-09T12:43:27;8.57;;;1.67;;
69188;SDS011;56302;52.322;5.926;2022-09-09T12:45:57;5.37;;;2.00;;
69188;SDS011;56302;52.322;5.926;2022-09-09T12:48:34;6.57;;;1.65;;
69188;SDS011;56302;52.322;5.926;2022-09-09T12:51:02;6.90;;;2.33;;
69188;SDS011;56302;52.322;5.926;2022-09-09T12:53:33;7.72;;;2.05;;
69188;SDS011;56302;52.322;5.926;2022-09-09T12:56:04;6.43;;;2.08;;
69188;SDS011;56302;52.322;5.926;2022-09-09T12:58:33;5.20;;;1.47;;
69188;SDS011;56302;52.322;5.926;2022-09-09T13:01:01;7.90;;;1.55;;
69188;SDS011;56302;52.322;5.926;2022-09-09T13:03:31;7.95;;;2.08;;
69188;SDS011;56302;52.322;5.926;2022-09-09T13:05:58;6.03;;;1.80;;
69188;SDS011;56302;52.322;5.926;2022-09-09T13:08:36;5.35;;;1.60;;
69188;SDS011;56302;52.322;5.926;2022-09-09T13:11:03;4.90;;;2.20;;
69188;SDS011;56302;52.322;5.926;2022-09-09T13:13:35;5.78;;;2.05;;
69188;SDS011;56302;52.322;5.926;2022-09-09T13:16:03;4.32;;;2.13;;
69188;SDS011;56302;52.322;5.926;2022-09-09T13:18:33;4.75;;;1.67;;
69188;SDS011;56302;52.322;5.926;2022-09-09T13:21:00;5.05;;;1.75;;
69188;SDS011;56302;52.322;5.926;2022-09-09T13:23:28;5.80;;;1.33;;
69188;SDS011;56302;52.322;5.926;2022-09-09T13:25:56;3.85;;;1.00;;
69188;SDS011;56302;52.322;5.926;2022-09-09T13:28:48;4.32;;;1.92;;
69188;SDS011;56302;52.322;5.926;2022-09-09T13:33:53;4.77;;;1.70;;
69188;SDS011;56302;52.322;5.926;2022-09-09T13:36:27;4.10;;;1.30;;
69188;SDS011;56302;52.322;5.926;2022-09-09T13:38:57;6.47;;;1.50;;
69188;SDS011;56302;52.322;5.926;2022-09-09T13:41:34;5.10;;;1.40;;
69188;SDS011;56302;52.322;5.926;2022-09-09T13:44:25;5.47;;;1.85;;
69188;SDS011;56302;52.322;5.926;2022-09-09T13:47:27;4.67;;;1.50;;
69188;SDS011;56302;52.322;5.926;2022-09-09T13:49:48;5.63;;;1.67;;
69188;SDS011;56302;52.322;5.926;2022-09-09T13:52:15;4.82;;;1.52;;
69188;SDS011;56302;52.322;5.926;2022-09-09T13:54:46;7.10;;;1.70;;
69188;SDS011;56302;52.322;5.926;2022-09-09T13:57:14;4.80;;;1.55;;
69188;SDS011;56302;52.322;5.926;2022-09-09T13:59:45;6.47;;;1.70;;
69188;SDS011;56302;52.322;5.926;2022-09-09T14:02:11;7.15;;;2.00;;
69188;SDS011;56302;52.322;5.926;2022-09-09T14:04:37;7.88;;;1.85;;
69188;SDS011;56302;52.322;5.926;2022-09-09T14:07:03;6.73;;;2.37;;
69188;SDS011;56302;52.322;5.926;2022-09-09T14:09:28;7.82;;;2.53;;
69188;SDS011;56302;52.322;5.926;2022-09-09T14:11:54;7.67;;;1.63;;
69188;SDS011;56302;52.322;5.926;2022-09-09T14:14:22;3.70;;;2.28;;
69188;SDS011;56302;52.322;5.926;2022-09-09T14:16:48;9.43;;;1.93;;
69188;SDS011;56302;52.322;5.926;2022-09-09T14:19:13;5.22;;;1.63;;
69188;SDS011;56302;52.322;5.926;2022-09-09T14:21:39;3.43;;;1.80;;
69188;SDS011;56302;52.322;5.926;2022-09-09T14:24:05;4.87;;;1.60;;
69188;SDS011;56302;52.322;5.926;2022-09-09T14:26:31;5.43;;;1.60;;
69188;SDS011;56302;52.322;5.926;2022-09-09T14:28:56;4.32;;;1.90;;
69188;SDS011;56302;52.322;5.926;2022-09-09T14:31:23;5.37;;;1.67;;
69188;SDS011;56302;52.322;5.926;2022-09-09T14:33:55;5.78;;;1.98;;
69188;SDS011;56302;52.322;5.926;2022-09-09T14:36:20;5.18;;;2.03;;
69188;SDS011;56302;52.322;5.926;2022-09-09T14:38:46;5.53;;;2.00;;
69188;SDS011;56302;52.322;5.926;2022-09-09T14:41:14;5.45;;;2.00;;
69188;SDS011;56302;52.322;5.926;2022-09-09T14:43:44;5.00;;;1.80;;
69188;SDS011;56302;52.322;5.926;2022-09-09T14:46:14;6.97;;;1.42;;
69188;SDS011;56302;52.322;5.926;2022-09-09T14:48:42;5.03;;;2.22;;
69188;SDS011;56302;52.322;5.926;2022-09-09T14:51:10;6.40;;;1.77;;
69188;SDS011;56302;52.322;5.926;2022-09-09T14:53:38;4.45;;;1.65;;
69188;SDS011;56302;52.322;5.926;2022-09-09T14:56:08;4.50;;;1.95;;
69188;SDS011;56302;52.322;5.926;2022-09-09T14:58:35;4.85;;;1.25;;
69188;SDS011;56302;52.322;5.926;2022-09-09T15:01:06;6.10;;;1.90;;
69188;SDS011;56302;52.322;5.926;2022-09-09T15:03:34;7.77;;;1.60;;
69188;SDS011;56302;52.322;5.926;2022-09-09T15:06:04;4.05;;;1.63;;
69188;SDS011;56302;52.322;5.926;2022-09-09T15:08:35;8.15;;;2.20;;
69188;SDS011;56302;52.322;5.926;2022-09-09T15:11:03;3.97;;;1.67;;
69188;SDS011;56302;52.322;5.926;2022-09-09T15:13:29;4.78;;;1.50;;
69188;SDS011;56302;52.322;5.926;2022-09-09T15:15:55;3.55;;;1.85;;
69188;SDS011;56302;52.322;5.926;2022-09-09T15:18:22;4.67;;;1.60;;
69188;SDS011;56302;52.322;5.926;2022-09-09T15:20:48;5.30;;;1.55;;
69188;SDS011;56302;52.322;5.926;2022-09-09T15:23:14;5.03;;;1.50;;
69188;SDS011;56302;52.322;5.926;2022-09-09T15:25:52;5.25;;;1.23;;
69188;SDS011;56302;52.322;5.926;2022-09-09T15:28:18;5.38;;;1.98;;
69188;SDS011;56302;52.322;5.926;2022-09-09T15:30:47;4.53;;;2.10;;
69188;SDS011;56302;52.322;5.926;2022-09-09T15:33:17;4.35;;;2.03;;
69188;SDS011;56302;52.322;5.926;2022-09-09T15:35:43;6.25;;;1.92;;
69188;SDS011;56302;52.322;5.926;2022-09-09T15:38:09;4.93;;;2.00;;
69188;SDS011;56302;52.322;5.926;2022-09-09T15:40:34;6.50;;;1.77;;
69188;SDS011;56302;52.322;5.926;2022-09-09T15:43:00;4.97;;;1.37;;
69188;SDS011;56302;52.322;5.926;2022-09-09T15:45:27;4.00;;;1.70;;
69188;SDS011;56302;52.322;5.926;2022-09-09T15:47:52;5.13;;;2.03;;
69188;SDS011;56302;52.322;5.926;2022-09-09T15:50:18;7.18;;;1.90;;
69188;SDS011;56302;52.322;5.926;2022-09-09T15:52:43;7.10;;;1.70;;
69188;SDS011;56302;52.322;5.926;2022-09-09T15:55:09;5.43;;;1.90;;
69188;SDS011;56302;52.322;5.926;2022-09-09T15:57:35;4.53;;;1.30;;
69188;SDS011;56302;52.322;5.926;2022-09-09T16:00:01;5.53;;;2.00;;
69188;SDS011;56302;52.322;5.926;2022-09-09T16:02:29;5.28;;;1.83;;
69188;SDS011;56302;52.322;5.926;2022-09-09T16:04:55;5.40;;;1.93;;
69188;SDS011;56302;52.322;5.926;2022-09-09T16:07:22;5.43;;;1.70;;
69188;SDS011;56302;52.322;5.926;2022-09-09T16:09:47;5.30;;;1.83;;
69188;SDS011;56302;52.322;5.926;2022-09-09T16:12:15;6.87;;;1.87;;
69188;SDS011;56302;52.322;5.926;2022-09-09T16:14:41;4.20;;;2.20;;
69188;SDS011;56302;52.322;5.926;2022-09-09T16:17:07;3.83;;;2.00;;
69188;SDS011;56302;52.322;5.926;2022-09-09T16:19:33;6.53;;;2.05;;
69188;SDS011;56302;52.322;5.926;2022-09-09T16:21:59;4.75;;;2.03;;
69188;SDS011;56302;52.322;5.926;2022-09-09T16:24:25;5.73;;;1.57;;
69188;SDS011;56302;52.322;5.926;2022-09-09T16:26:52;5.65;;;1.88;;
69188;SDS011;56302;52.322;5.926;2022-09-09T16:29:19;4.80;;;2.08;;
69188;SDS011;56302;52.322;5.926;2022-09-09T16:31:46;5.95;;;2.00;;
69188;SDS011;56302;52.322;5.926;2022-09-09T16:34:13;5.55;;;2.10;;
69188;SDS011;56302;52.322;5.926;2022-09-09T16:36:40;5.73;;;1.63;;
69188;SDS011;56302;52.322;5.926;2022-09-09T16:39:16;7.35;;;2.67;;
69188;SDS011;56302;52.322;5.926;2022-09-09T16:41:44;4.63;;;2.08;;
69188;SDS011;56302;52.322;5.926;2022-09-09T16:44:12;6.45;;;2.17;;
69188;SDS011;56302;52.322;5.926;2022-09-09T16:46:41;6.82;;;2.35;;
69188;SDS011;56302;52.322;5.926;2022-09-09T16:49:08;3.87;;;1.80;;
69188;SDS011;56302;52.322;5.926;2022-09-09T16:51:36;5.20;;;2.00;;
69188;SDS011;56302;52.322;5.926;2022-09-09T16:54:07;6.38;;;1.98;;
69188;SDS011;56302;52.322;5.926;2022-09-09T16:56:35;4.07;;;1.70;;
69188;SDS011;56302;52.322;5.926;2022-09-09T16:59:03;3.80;;;2.20;;
69188;SDS011;56302;52.322;5.926;2022-09-09T17:01:32;5.50;;;2.33;;
69188;SDS011;56302;52.322;5.926;2022-09-09T17:04:02;5.07;;;1.90;;
69188;SDS011;56302;52.322;5.926;2022-09-09T17:06:30;8.15;;;2.00;;
69188;SDS011;56302;52.322;5.926;2022-09-09T17:09:02;5.60;;;1.80;;
69188;SDS011;56302;52.322;5.926;2022-09-09T17:11:30;6.20;;;1.80;;
69188;SDS011;56302;52.322;5.926;2022-09-09T17:13:56;4.57;;;1.73;;
69188;SDS011;56302;52.322;5.926;2022-09-09T17:16:23;8.00;;;1.67;;